Language: 


Des rapports , des résumés tant et plus, au choix de chacun....


Données Historiques de Météogheer
Journalier Rapport pour Janvier 20, 2018 Unitée:  Les deux    Impériale   Métrique
Suivant Jour »
Journalier Hebdomadaire Mensuel Annuel Sur mesure
  Max: Min: Moyenne:
Température: 42.3 °F /  5.7 °C 32.5 °F /  0.3 °C 38.5 °F /  3.6 °C
Point de rosée: 42.8 °F /  6.0 °C 32 °F /  0.0 °C 38.5 °F /  3.6 °C
Humidité: 98% 93% 98%
Vent: 8.5mph /  13.7km/h - 2mph /  3.2km/h
Rafales: 12.1mph /  19.5km/h - -
Vent- - SSE
Pression: 29.8 in /  1010.0 hPa 29.4 in /  996.2 hPa -
Pluie: 0.28 in /  7.1 mm    
Historical Graphs
 
 
Données tabulaires pour Janvier 20, 2018
Heure Température Point de rosée Pression Vent Vent Rafales Humidité Pluie Taux (Horaire) Conditions
00:03 33.4 °F /  0.8 °C 32 °F /  0.0 °C 29.8in /  1010.0hPa Calm   4.3mph /  6.9km/h 93% 0in /  0.0mm
00:08 33.6 °F /  0.9 °C 32 °F /  0.0 °C 29.8in /  1010.0hPa Calm   4.3mph /  6.9km/h 94% 0in /  0.0mm
00:13 33.6 °F /  0.9 °C 32 °F /  0.0 °C 29.8in /  1010.0hPa WSW 1.6mph /  2.6km/h 3.6mph /  5.8km/h 94% 0in /  0.0mm
00:18 33.8 °F /  1.0 °C 32 °F /  0.0 °C 29.8in /  1010.0hPa Calm   1.6mph /  2.6km/h 94% 0in /  0.0mm
00:23 33.8 °F /  1.0 °C 32 °F /  0.0 °C 29.8in /  1010.0hPa West 4.3mph /  6.9km/h 4.3mph /  6.9km/h 94% 0in /  0.0mm
00:28 34 °F /  1.1 °C 32 °F /  0.0 °C 29.8in /  1010.0hPa Calm   4.7mph /  7.6km/h 94% 0in /  0.0mm
00:33 34 °F /  1.1 °C 32 °F /  0.0 °C 29.8in /  1009.0hPa WSW 2.9mph /  4.7km/h 4.7mph /  7.6km/h 94% 0in /  0.0mm
00:38 34.2 °F /  1.2 °C 33.8 °F /  1.0 °C 29.8in /  1009.0hPa Calm   3.8mph /  6.1km/h 94% 0in /  0.0mm
00:43 34.2 °F /  1.2 °C 33.8 °F /  1.0 °C 29.8in /  1009.0hPa Calm   3.8mph /  6.1km/h 94% 0in /  0.0mm
00:48 34.3 °F /  1.3 °C 33.8 °F /  1.0 °C 29.8in /  1009.0hPa Calm   2.7mph /  4.3km/h 95% 0in /  0.0mm
00:53 34.3 °F /  1.3 °C 33.8 °F /  1.0 °C 29.8in /  1009.0hPa Calm   2.7mph /  4.3km/h 95% 0in /  0.0mm
00:58 34.3 °F /  1.3 °C 33.8 °F /  1.0 °C 29.8in /  1009.0hPa Calm   3.1mph /  5.0km/h 95% 0in /  0.0mm
01:03 34.2 °F /  1.2 °C 33.8 °F /  1.0 °C 29.8in /  1009.0hPa Calm   3.1mph /  5.0km/h 95% 0in /  0.0mm
01:08 34.2 °F /  1.2 °C 33.8 °F /  1.0 °C 29.8in /  1009.0hPa West 2.7mph /  4.3km/h 3.1mph /  5.0km/h 94% 0in /  0.0mm
01:14 34.2 °F /  1.2 °C 33.8 °F /  1.0 °C 29.8in /  1009.0hPa Calm   4.3mph /  6.9km/h 94% 0in /  0.0mm
01:19 34.2 °F /  1.2 °C 33.8 °F /  1.0 °C 29.8in /  1009.0hPa Calm   4.3mph /  6.9km/h 94% 0in /  0.0mm
01:24 34.2 °F /  1.2 °C 33.8 °F /  1.0 °C 29.8in /  1009.0hPa SW 1.1mph /  1.8km/h 4mph /  6.4km/h 94% 0in /  0.0mm
01:29 34.2 °F /  1.2 °C 33.8 °F /  1.0 °C 29.8in /  1009.0hPa WSW 5.4mph /  8.7km/h 5.4mph /  8.7km/h 95% 0in /  0.0mm
01:34 34.5 °F /  1.4 °C 33.8 °F /  1.0 °C 29.8in /  1009.0hPa Calm   5.4mph /  8.7km/h 95% 0in /  0.0mm
01:39 34.9 °F /  1.6 °C 33.8 °F /  1.0 °C 29.8in /  1009.0hPa Calm   4.9mph /  7.9km/h 96% 0in /  0.0mm
01:44 34.9 °F /  1.6 °C 33.8 °F /  1.0 °C 29.8in /  1008.0hPa WSW 3.6mph /  5.8km/h 5.6mph /  9.0km/h 96% 0in /  0.0mm
01:49 35.1 °F /  1.7 °C 33.8 °F /  1.0 °C 29.8in /  1008.0hPa Calm   5.6mph /  9.0km/h 96% 0in /  0.0mm
01:54 34.9 °F /  1.6 °C 33.8 °F /  1.0 °C 29.8in /  1008.0hPa Calm   5.4mph /  8.7km/h 96% 0in /  0.0mm
01:59 34.9 °F /  1.6 °C 33.8 °F /  1.0 °C 29.8in /  1009.0hPa Calm   1.1mph /  1.8km/h 96% 0in /  0.0mm
02:04 34.9 °F /  1.6 °C 33.8 °F /  1.0 °C 29.8in /  1009.0hPa Calm   2.5mph /  4.0km/h 96% 0in /  0.0mm
02:09 34.7 °F /  1.5 °C 33.8 °F /  1.0 °C 29.8in /  1009.0hPa WSW 2.7mph /  4.3km/h 3.4mph /  5.5km/h 95% 0in /  0.0mm
02:14 34.5 °F /  1.4 °C 33.8 °F /  1.0 °C 29.8in /  1009.0hPa Calm   3.4mph /  5.5km/h 95% 0in /  0.0mm
02:19 34.3 °F /  1.3 °C 33.8 °F /  1.0 °C 29.8in /  1009.0hPa Calm   1.3mph /  2.1km/h 95% 0in /  0.0mm
02:24 34 °F /  1.1 °C 32 °F /  0.0 °C 29.8in /  1009.0hPa Calm     94% 0in /  0.0mm
02:29 34 °F /  1.1 °C 33.8 °F /  1.0 °C 29.8in /  1008.0hPa Calm   2.5mph /  4.0km/h 95% 0in /  0.0mm
02:34 33.8 °F /  1.0 °C 32 °F /  0.0 °C 29.8in /  1008.0hPa Calm   2.5mph /  4.0km/h 94% 0in /  0.0mm
02:39 33.6 °F /  0.9 °C 33.8 °F /  1.0 °C 29.8in /  1008.0hPa Calm   1.3mph /  2.1km/h 95% 0in /  0.0mm
02:44 33.3 °F /  0.7 °C 32 °F /  0.0 °C 29.8in /  1009.0hPa Calm     94% 0in /  0.0mm
02:49 32.9 °F /  0.5 °C 32 °F /  0.0 °C 29.8in /  1009.0hPa Calm   1.6mph /  2.6km/h 94% 0in /  0.0mm
02:54 32.7 °F /  0.4 °C 32 °F /  0.0 °C 29.8in /  1009.0hPa Calm   1.6mph /  2.6km/h 94% 0in /  0.0mm
02:59 32.7 °F /  0.4 °C 32 °F /  0.0 °C 29.8in /  1009.0hPa Calm   1.6mph /  2.6km/h 94% 0in /  0.0mm
03:04 32.5 °F /  0.3 °C 32 °F /  0.0 °C 29.8in /  1009.0hPa Calm   1.6mph /  2.6km/h 95% 0in /  0.0mm
03:09 32.5 °F /  0.3 °C 32 °F /  0.0 °C 29.8in /  1009.0hPa Calm     95% 0in /  0.0mm
03:14 32.5 °F /  0.3 °C 32 °F /  0.0 °C 29.8in /  1009.0hPa Calm     95% 0in /  0.0mm
03:20 32.5 °F /  0.3 °C 32 °F /  0.0 °C 29.8in /  1009.0hPa Calm     96% 0in /  0.0mm
03:25 32.7 °F /  0.4 °C 32 °F /  0.0 °C 29.8in /  1009.0hPa Calm     96% 0in /  0.0mm
03:30 32.7 °F /  0.4 °C 32 °F /  0.0 °C 29.8in /  1008.0hPa Calm     97% 0in /  0.0mm
03:35 32.7 °F /  0.4 °C 32 °F /  0.0 °C 29.8in /  1008.0hPa Calm     97% 0in /  0.0mm
03:40 32.9 °F /  0.5 °C 33.8 °F /  1.0 °C 29.8in /  1008.0hPa Calm   3.8mph /  6.1km/h 97% 0in /  0.0mm
03:45 33.4 °F /  0.8 °C 33.8 °F /  1.0 °C 29.8in /  1008.0hPa Calm   3.8mph /  6.1km/h 98% 0in /  0.0mm
03:50 33.4 °F /  0.8 °C 33.8 °F /  1.0 °C 29.8in /  1008.0hPa SSW 2mph /  3.2km/h 2.2mph /  3.5km/h 98% 0in /  0.0mm
03:55 33.4 °F /  0.8 °C 33.8 °F /  1.0 °C 29.8in /  1008.0hPa North 3.4mph /  5.5km/h 3.4mph /  5.5km/h 98% 0in /  0.0mm
04:00 33.6 °F /  0.9 °C 33.8 °F /  1.0 °C 29.7in /  1007.0hPa South 2.7mph /  4.3km/h 4.7mph /  7.6km/h 98% 0in /  0.0mm
04:05 33.8 °F /  1.0 °C 33.8 °F /  1.0 °C 29.7in /  1007.0hPa Calm   4.7mph /  7.6km/h 98% 0in /  0.0mm
04:10 33.8 °F /  1.0 °C 33.8 °F /  1.0 °C 29.7in /  1007.0hPa Calm   4.3mph /  6.9km/h 98% 0in /  0.0mm
04:15 34 °F /  1.1 °C 33.8 °F /  1.0 °C 29.8in /  1008.0hPa Calm   1.6mph /  2.6km/h 98% 0in /  0.0mm
04:20 34 °F /  1.1 °C 33.8 °F /  1.0 °C 29.8in /  1008.0hPa Calm     98% 0in /  0.0mm
04:25 34.2 °F /  1.2 °C 33.8 °F /  1.0 °C 29.8in /  1008.0hPa Calm     98% 0in /  0.0mm
04:30 34.3 °F /  1.3 °C 33.8 °F /  1.0 °C 29.7in /  1007.0hPa Calm   2.9mph /  4.7km/h 98% 0in /  0.0mm
04:35 34.3 °F /  1.3 °C 33.8 °F /  1.0 °C 29.7in /  1007.0hPa Calm   3.1mph /  5.0km/h 98% 0in /  0.0mm
04:40 34.3 °F /  1.3 °C 33.8 °F /  1.0 °C 29.7in /  1007.0hPa SSW 2.2mph /  3.5km/h 3.1mph /  5.0km/h 98% 0in /  0.0mm
04:45 34.5 °F /  1.4 °C 33.8 °F /  1.0 °C 29.7in /  1007.0hPa Calm   3.1mph /  5.0km/h 98% 0in /  0.0mm
04:50 34.7 °F /  1.5 °C 35.6 °F /  2.0 °C 29.7in /  1007.0hPa SSW 3.1mph /  5.0km/h 3.1mph /  5.0km/h 98% 0in /  0.0mm
04:55 34.9 °F /  1.6 °C 35.6 °F /  2.0 °C 29.7in /  1007.0hPa SSW 3.8mph /  6.1km/h 4.7mph /  7.6km/h 98% 0in /  0.0mm
05:01 35.2 °F /  1.8 °C 35.6 °F /  2.0 °C 29.7in /  1007.0hPa South 3.4mph /  5.5km/h 6.5mph /  10.5km/h 98% 0in /  0.0mm
05:06 35.6 °F /  2.0 °C 35.6 °F /  2.0 °C 29.7in /  1007.0hPa South 4.9mph /  7.9km/h 6.5mph /  10.5km/h 98% 0in /  0.0mm
05:11 35.8 °F /  2.1 °C 35.6 °F /  2.0 °C 29.7in /  1007.0hPa SSW 4.3mph /  6.9km/h 6.5mph /  10.5km/h 98% 0in /  0.0mm
05:16 36 °F /  2.2 °C 35.6 °F /  2.0 °C 29.7in /  1007.0hPa SSW 6.5mph /  10.5km/h 6.7mph /  10.8km/h 98% 0in /  0.0mm
05:21 36.3 °F /  2.4 °C 37.4 °F /  3.0 °C 29.7in /  1007.0hPa SW 6mph /  9.7km/h 9.8mph /  15.8km/h 98% 0.01in /  0.3mm
05:26 36.7 °F /  2.6 °C 37.4 °F /  3.0 °C 29.7in /  1007.0hPa Calm   9.8mph /  15.8km/h 98% 0.02in /  0.5mm
05:31 36.9 °F /  2.7 °C 37.4 °F /  3.0 °C 29.7in /  1007.0hPa SW 2.9mph /  4.7km/h 8.1mph /  13.0km/h 98% 0.02in /  0.5mm
05:36 36.9 °F /  2.7 °C 37.4 °F /  3.0 °C 29.7in /  1007.0hPa Calm   6.5mph /  10.5km/h 98% 0.02in /  0.5mm
05:41 37 °F /  2.8 °C 37.4 °F /  3.0 °C 29.7in /  1007.0hPa SW 4.7mph /  7.6km/h 5.4mph /  8.7km/h 98% 0.02in /  0.5mm
05:46 37 °F /  2.8 °C 37.4 °F /  3.0 °C 29.7in /  1006.0hPa SSW 0.9mph /  1.4km/h 5.4mph /  8.7km/h 98% 0.02in /  0.5mm
05:51 37 °F /  2.8 °C 37.4 °F /  3.0 °C 29.7in /  1006.0hPa South 3.4mph /  5.5km/h 4.3mph /  6.9km/h 98% 0.02in /  0.5mm
05:56 37 °F /  2.8 °C 37.4 °F /  3.0 °C 29.7in /  1006.0hPa SSW 3.1mph /  5.0km/h 6.5mph /  10.5km/h 98% 0.02in /  0.5mm
06:01 37 °F /  2.8 °C 37.4 °F /  3.0 °C 29.7in /  1006.0hPa SW 2.9mph /  4.7km/h 6.5mph /  10.5km/h 98% 0.02in /  0.5mm
06:06 37 °F /  2.8 °C 37.4 °F /  3.0 °C 29.7in /  1006.0hPa South 3.6mph /  5.8km/h 6.5mph /  10.5km/h 98% 0.02in /  0.5mm
06:11 37.2 °F /  2.9 °C 37.4 °F /  3.0 °C 29.7in /  1006.0hPa SSW 3.6mph /  5.8km/h 6.7mph /  10.8km/h 98% 0.02in /  0.5mm
06:16 37.2 °F /  2.9 °C 37.4 °F /  3.0 °C 29.7in /  1005.0hPa Calm   6.7mph /  10.8km/h 98% 0.02in /  0.5mm
06:21 37.2 °F /  2.9 °C 37.4 °F /  3.0 °C 29.7in /  1005.0hPa SSW 4.3mph /  6.9km/h 6.3mph /  10.1km/h 98% 0.02in /  0.5mm
06:26 37.4 °F /  3.0 °C 37.4 °F /  3.0 °C 29.7in /  1005.0hPa South 1.6mph /  2.6km/h 6.3mph /  10.1km/h 98% 0.01in /  0.3mm
06:31 37.4 °F /  3.0 °C 37.4 °F /  3.0 °C 29.7in /  1005.0hPa South 2.5mph /  4.0km/h 6.3mph /  10.1km/h 98% 0.01in /  0.3mm
06:36 37.4 °F /  3.0 °C 37.4 °F /  3.0 °C 29.7in /  1005.0hPa SSW 1.1mph /  1.8km/h 7.6mph /  12.2km/h 98% 0.01in /  0.3mm
06:41 37.6 °F /  3.1 °C 37.4 °F /  3.0 °C 29.7in /  1005.0hPa South 2.9mph /  4.7km/h 7.6mph /  12.2km/h 98% 0.01in /  0.3mm
06:46 37.6 °F /  3.1 °C 37.4 °F /  3.0 °C 29.7in /  1005.0hPa SSW 5.6mph /  9.0km/h 5.6mph /  9.0km/h 98% 0.01in /  0.3mm
06:51 37.6 °F /  3.1 °C 37.4 °F /  3.0 °C 29.7in /  1005.0hPa Calm   5.6mph /  9.0km/h 98% 0.02in /  0.5mm
06:56 37.6 °F /  3.1 °C 37.4 °F /  3.0 °C 29.7in /  1005.0hPa South 4.3mph /  6.9km/h 4.9mph /  7.9km/h 98% 0.02in /  0.5mm
07:01 37.6 °F /  3.1 °C 37.4 °F /  3.0 °C 29.7in /  1005.0hPa South 4.9mph /  7.9km/h 6.3mph /  10.1km/h 98% 0.02in /  0.5mm
07:07 37.6 °F /  3.1 °C 37.4 °F /  3.0 °C 29.7in /  1005.0hPa South 2.7mph /  4.3km/h 6.7mph /  10.8km/h 98% 0.02in /  0.5mm
07:12 37.8 °F /  3.2 °C 37.4 °F /  3.0 °C 29.7in /  1005.0hPa South 4.3mph /  6.9km/h 6.7mph /  10.8km/h 98% 0.02in /  0.5mm
07:17 37.8 °F /  3.2 °C 37.4 °F /  3.0 °C 29.7in /  1005.0hPa South 4.3mph /  6.9km/h 6.5mph /  10.5km/h 98% 0.02in /  0.5mm
07:22 37.9 °F /  3.3 °C 37.4 °F /  3.0 °C 29.7in /  1005.0hPa South 4.7mph /  7.6km/h 10.3mph /  16.6km/h 98% 0.01in /  0.3mm
07:27 37.9 °F /  3.3 °C 37.4 °F /  3.0 °C 29.7in /  1005.0hPa South 5.6mph /  9.0km/h 10.3mph /  16.6km/h 98% 0.01in /  0.3mm
07:32 37.9 °F /  3.3 °C 37.4 °F /  3.0 °C 29.7in /  1005.0hPa South 4mph /  6.4km/h 6.5mph /  10.5km/h 98% 0.03in /  0.8mm
07:37 37.9 °F /  3.3 °C 37.4 °F /  3.0 °C 29.7in /  1005.0hPa South 7.8mph /  12.6km/h 8.5mph /  13.7km/h 98% 0.03in /  0.8mm
07:42 38.1 °F /  3.4 °C 37.4 °F /  3.0 °C 29.7in /  1005.0hPa South 5.4mph /  8.7km/h 12.1mph /  19.5km/h 98% 0.03in /  0.8mm
07:47 38.1 °F /  3.4 °C 37.4 °F /  3.0 °C 29.6in /  1003.9hPa SSW 6mph /  9.7km/h 12.1mph /  19.5km/h 98% 0.03in /  0.8mm
07:52 38.1 °F /  3.4 °C 37.4 °F /  3.0 °C 29.6in /  1003.9hPa South 2.9mph /  4.7km/h 8.7mph /  14.0km/h 98% 0.01in /  0.3mm
07:57 38.1 °F /  3.4 °C 37.4 °F /  3.0 °C 29.6in /  1003.9hPa SSW 2.9mph /  4.7km/h 6.7mph /  10.8km/h 98% 0.01in /  0.3mm
08:02 38.3 °F /  3.5 °C 39.2 °F /  4.0 °C 29.6in /  1003.9hPa SSW 3.1mph /  5.0km/h 7.6mph /  12.2km/h 98% 0.01in /  0.3mm
08:07 38.3 °F /  3.5 °C 39.2 °F /  4.0 °C 29.6in /  1003.9hPa South 3.1mph /  5.0km/h 7.6mph /  12.2km/h 98% 0.01in /  0.3mm
08:12 38.5 °F /  3.6 °C 39.2 °F /  4.0 °C 29.6in /  1003.9hPa South 5.4mph /  8.7km/h 6.9mph /  11.1km/h 98% 0.03in /  0.8mm
08:17 38.3 °F /  3.5 °C 39.2 °F /  4.0 °C 29.6in /  1003.9hPa SSW 3.8mph /  6.1km/h 6.9mph /  11.1km/h 98% 0.03in /  0.8mm
08:22 38.3 °F /  3.5 °C 39.2 °F /  4.0 °C 29.6in /  1003.9hPa South 4.3mph /  6.9km/h 6.3mph /  10.1km/h 98% 0.03in /  0.8mm
08:27 38.3 °F /  3.5 °C 39.2 °F /  4.0 °C 29.6in /  1003.9hPa SSE 4mph /  6.4km/h 5.4mph /  8.7km/h 98% 0.03in /  0.8mm
08:32 38.3 °F /  3.5 °C 39.2 °F /  4.0 °C 29.6in /  1002.9hPa SSW 5.4mph /  8.7km/h 5.4mph /  8.7km/h 98% 0.01in /  0.3mm
08:37 38.3 °F /  3.5 °C 39.2 °F /  4.0 °C 29.6in /  1002.9hPa SSE 3.8mph /  6.1km/h 5.4mph /  8.7km/h 98% 0.01in /  0.3mm
08:42 38.3 °F /  3.5 °C 39.2 °F /  4.0 °C 29.6in /  1002.9hPa South 3.8mph /  6.1km/h 6.3mph /  10.1km/h 98% 0.01in /  0.3mm
08:47 38.3 °F /  3.5 °C 39.2 °F /  4.0 °C 29.6in /  1002.9hPa SSW 4.3mph /  6.9km/h 6.3mph /  10.1km/h 98% 0.01in /  0.3mm
08:53 38.3 °F /  3.5 °C 39.2 °F /  4.0 °C 29.6in /  1002.9hPa South 4.3mph /  6.9km/h 6mph /  9.7km/h 98% 0.02in /  0.5mm
08:58 38.5 °F /  3.6 °C 39.2 °F /  4.0 °C 29.6in /  1002.9hPa Calm   6.5mph /  10.5km/h 98% 0.02in /  0.5mm
09:03 38.5 °F /  3.6 °C 39.2 °F /  4.0 °C 29.6in /  1002.9hPa Calm   6.5mph /  10.5km/h 98% 0.02in /  0.5mm
09:08 38.5 °F /  3.6 °C 39.2 °F /  4.0 °C 29.6in /  1002.9hPa SSW 4.7mph /  7.6km/h 5.8mph /  9.3km/h 98% 0.01in /  0.3mm
09:13 38.5 °F /  3.6 °C 39.2 °F /  4.0 °C 29.6in /  1002.9hPa South 3.6mph /  5.8km/h 5.8mph /  9.3km/h 98% 0.01in /  0.3mm
09:18 38.5 °F /  3.6 °C 39.2 °F /  4.0 °C 29.6in /  1001.9hPa SSW 6.5mph /  10.5km/h 6.5mph /  10.5km/h 98% 0.01in /  0.3mm
09:23 38.7 °F /  3.7 °C 39.2 °F /  4.0 °C 29.6in /  1001.9hPa SSW 3.8mph /  6.1km/h 6.5mph /  10.5km/h 98% 0.01in /  0.3mm
09:28 38.7 °F /  3.7 °C 39.2 °F /  4.0 °C 29.6in /  1001.9hPa SSW 6mph /  9.7km/h 6.5mph /  10.5km/h 98% 0.01in /  0.3mm
09:33 38.7 °F /  3.7 °C 39.2 °F /  4.0 °C 29.6in /  1001.9hPa South 3.8mph /  6.1km/h 6.3mph /  10.1km/h 98% 0.01in /  0.3mm
09:38 38.8 °F /  3.8 °C 39.2 °F /  4.0 °C 29.6in /  1001.9hPa South 5.8mph /  9.3km/h 7.8mph /  12.6km/h 98% 0.01in /  0.3mm
09:43 38.8 °F /  3.8 °C 39.2 °F /  4.0 °C 29.6in /  1001.9hPa SSE 5.4mph /  8.7km/h 7.8mph /  12.6km/h 98% 0.01in /  0.3mm
09:48 38.8 °F /  3.8 °C 39.2 °F /  4.0 °C 29.6in /  1003.9hPa South 5.6mph /  9.0km/h 6.5mph /  10.5km/h 98% 0.01in /  0.3mm
09:53 39 °F /  3.9 °C 39.2 °F /  4.0 °C 29.6in /  1003.9hPa South 2mph /  3.2km/h 6.5mph /  10.5km/h 98% 0in /  0.0mm
09:58 39 °F /  3.9 °C 39.2 °F /  4.0 °C 29.6in /  1003.9hPa Calm   5.6mph /  9.0km/h 98% 0.01in /  0.3mm
10:03 39 °F /  3.9 °C 39.2 °F /  4.0 °C 29.6in /  1001.9hPa SSE 2.7mph /  4.3km/h 7.6mph /  12.2km/h 98% 0.01in /  0.3mm
10:08 39 °F /  3.9 °C 39.2 °F /  4.0 °C 29.6in /  1001.9hPa Calm   7.6mph /  12.2km/h 98% 0.01in /  0.3mm
10:13 39.2 °F /  4.0 °C 39.2 °F /  4.0 °C 29.6in /  1001.9hPa South 3.8mph /  6.1km/h 5.4mph /  8.7km/h 98% 0.01in /  0.3mm
10:18 39.2 °F /  4.0 °C 39.2 °F /  4.0 °C 29.6in /  1001.9hPa Calm   5.4mph /  8.7km/h 98% 0.01in /  0.3mm
10:23 39.2 °F /  4.0 °C 39.2 °F /  4.0 °C 29.6in /  1001.9hPa South 4mph /  6.4km/h 5.6mph /  9.0km/h 98% 0.01in /  0.3mm
10:28 39.2 °F /  4.0 °C 39.2 °F /  4.0 °C 29.6in /  1001.9hPa South 2mph /  3.2km/h 6mph /  9.7km/h 98% 0.01in /  0.3mm
10:33 39.2 °F /  4.0 °C 39.2 °F /  4.0 °C 29.6in /  1001.9hPa South 0.9mph /  1.4km/h 6mph /  9.7km/h 98% 0.01in /  0.3mm
10:38 39.4 °F /  4.1 °C 39.2 °F /  4.0 °C 29.6in /  1001.9hPa South 3.8mph /  6.1km/h 7.8mph /  12.6km/h 98% 0.01in /  0.3mm
10:39 39.4 °F /  4.1 °C 39.2 °F /  4.0 °C 29.6in /  1001.9hPa SSE 1.6mph /  2.6km/h 7.8mph /  12.6km/h 98% 0.01in /  0.3mm
10:44 39.4 °F /  4.1 °C 39.2 °F /  4.0 °C 29.6in /  1001.9hPa Calm   7.8mph /  12.6km/h 98% 0.02in /  0.5mm
10:49 39.4 °F /  4.1 °C 39.2 °F /  4.0 °C 29.6in /  1001.9hPa South 4.3mph /  6.9km/h 5.8mph /  9.3km/h 98% 0.02in /  0.5mm
10:54 39.4 °F /  4.1 °C 39.2 °F /  4.0 °C 29.6in /  1001.9hPa SSE 1.6mph /  2.6km/h 5.8mph /  9.3km/h 98% 0.02in /  0.5mm
10:59 39.6 °F /  4.2 °C 39.2 °F /  4.0 °C 29.6in /  1000.9hPa Calm   5.6mph /  9.0km/h 98% 0.01in /  0.3mm
11:04 39.6 °F /  4.2 °C 39.2 °F /  4.0 °C 29.6in /  1000.9hPa Calm   4.5mph /  7.2km/h 98% 0.02in /  0.5mm
11:09 39.7 °F /  4.3 °C 39.2 °F /  4.0 °C 29.6in /  1000.9hPa South 4.7mph /  7.6km/h 4.7mph /  7.6km/h 98% 0.02in /  0.5mm
11:14 39.7 °F /  4.3 °C 39.2 °F /  4.0 °C 29.6in /  1000.9hPa SSE 2.7mph /  4.3km/h 4.9mph /  7.9km/h 98% 0.02in /  0.5mm
11:19 39.7 °F /  4.3 °C 39.2 °F /  4.0 °C 29.6in /  1000.9hPa Calm   4.9mph /  7.9km/h 98% 0.02in /  0.5mm
11:24 39.7 °F /  4.3 °C 39.2 °F /  4.0 °C 29.6in /  1000.9hPa Calm   5.8mph /  9.3km/h 98% 0.03in /  0.8mm
11:29 39.9 °F /  4.4 °C 39.2 °F /  4.0 °C 29.5in /  999.9hPa SSE 2.9mph /  4.7km/h 5.8mph /  9.3km/h 98% 0.03in /  0.8mm
11:34 39.9 °F /  4.4 °C 39.2 °F /  4.0 °C 29.5in /  999.9hPa Calm   4.5mph /  7.2km/h 98% 0.05in /  1.3mm
11:39 39.9 °F /  4.4 °C 39.2 °F /  4.0 °C 29.5in /  999.9hPa South 3.8mph /  6.1km/h 4mph /  6.4km/h 98% 0.05in /  1.3mm
11:44 40.1 °F /  4.5 °C 41 °F /  5.0 °C 29.6in /  1000.9hPa Calm   3.8mph /  6.1km/h 98% 0.04in /  1.0mm
11:49 40.1 °F /  4.5 °C 41 °F /  5.0 °C 29.6in /  1000.9hPa Calm   4.3mph /  6.9km/h 98% 0.05in /  1.3mm
11:54 40.3 °F /  4.6 °C 41 °F /  5.0 °C 29.6in /  1000.9hPa ESE 2.5mph /  4.0km/h 6.5mph /  10.5km/h 98% 0.05in /  1.3mm
11:59 40.3 °F /  4.6 °C 41 °F /  5.0 °C 29.5in /  999.9hPa SSE 2.9mph /  4.7km/h 6.5mph /  10.5km/h 98% 0.05in /  1.3mm
12:04 40.5 °F /  4.7 °C 41 °F /  5.0 °C 29.5in /  999.9hPa Calm   6.3mph /  10.1km/h 98% 0.04in /  1.0mm
12:09 40.5 °F /  4.7 °C 41 °F /  5.0 °C 29.5in /  999.9hPa Calm   6mph /  9.7km/h 98% 0.04in /  1.0mm
12:14 40.5 °F /  4.7 °C 41 °F /  5.0 °C 29.5in /  999.9hPa SSE 1.1mph /  1.8km/h 6.3mph /  10.1km/h 98% 0.05in /  1.3mm
12:19 40.5 °F /  4.7 °C 41 °F /  5.0 °C 29.5in /  999.9hPa Calm   6.3mph /  10.1km/h 98% 0.04in /  1.0mm
12:25 40.6 °F /  4.8 °C 41 °F /  5.0 °C 29.5in /  999.9hPa Calm   3.4mph /  5.5km/h 98% 0.04in /  1.0mm
12:30 40.6 °F /  4.8 °C 41 °F /  5.0 °C 29.5in /  998.9hPa Calm   4.3mph /  6.9km/h 98% 0.04in /  1.0mm
12:35 40.8 °F /  4.9 °C 41 °F /  5.0 °C 29.5in /  998.9hPa ESE 2.7mph /  4.3km/h 4.3mph /  6.9km/h 98% 0.02in /  0.5mm
12:40 40.8 °F /  4.9 °C 41 °F /  5.0 °C 29.5in /  998.9hPa South 4mph /  6.4km/h 6.5mph /  10.5km/h 98% 0.02in /  0.5mm
12:45 41 °F /  5.0 °C 41 °F /  5.0 °C 29.5in /  997.9hPa Calm   6.5mph /  10.5km/h 98% 0.03in /  0.8mm
12:50 41 °F /  5.0 °C 41 °F /  5.0 °C 29.5in /  997.9hPa East 2mph /  3.2km/h 4mph /  6.4km/h 98% 0.02in /  0.5mm
12:55 41 °F /  5.0 °C 41 °F /  5.0 °C 29.5in /  997.9hPa ESE 1.3mph /  2.1km/h 4mph /  6.4km/h 98% 0.02in /  0.5mm
13:00 41 °F /  5.0 °C 41 °F /  5.0 °C 29.5in /  998.9hPa ESE 1.3mph /  2.1km/h 4mph /  6.4km/h 98% 0.02in /  0.5mm
13:05 41 °F /  5.0 °C 41 °F /  5.0 °C 29.5in /  998.9hPa Calm   4mph /  6.4km/h 98% 0.02in /  0.5mm
13:10 41.2 °F /  5.1 °C 41 °F /  5.0 °C 29.5in /  998.9hPa ESE 2.9mph /  4.7km/h 5.6mph /  9.0km/h 98% 0.01in /  0.3mm
13:15 41.2 °F /  5.1 °C 41 °F /  5.0 °C 29.5in /  998.9hPa ESE 3.1mph /  5.0km/h 6mph /  9.7km/h 98% 0.02in /  0.5mm
13:20 41.2 °F /  5.1 °C 41 °F /  5.0 °C 29.5in /  998.9hPa SSE 3.1mph /  5.0km/h 6mph /  9.7km/h 98% 0.02in /  0.5mm
13:25 41.2 °F /  5.1 °C 41 °F /  5.0 °C 29.5in /  998.9hPa Calm   5.8mph /  9.3km/h 98% 0.02in /  0.5mm
13:30 41.4 °F /  5.2 °C 41 °F /  5.0 °C 29.5in /  997.9hPa Calm   4.7mph /  7.6km/h 98% 0.02in /  0.5mm
13:35 41.4 °F /  5.2 °C 41 °F /  5.0 °C 29.5in /  997.9hPa Calm   4.7mph /  7.6km/h 98% 0.02in /  0.5mm
13:40 41.5 °F /  5.3 °C 42.8 °F /  6.0 °C 29.5in /  997.9hPa ESE 3.4mph /  5.5km/h 4.7mph /  7.6km/h 98% 0.03in /  0.8mm
13:45 41.5 °F /  5.3 °C 42.8 °F /  6.0 °C 29.5in /  997.9hPa ESE 2.9mph /  4.7km/h 3.8mph /  6.1km/h 98% 0.02in /  0.5mm
13:50 41.7 °F /  5.4 °C 42.8 °F /  6.0 °C 29.5in /  997.9hPa East 4.9mph /  7.9km/h 4.9mph /  7.9km/h 98% 0.02in /  0.5mm
13:55 41.7 °F /  5.4 °C 42.8 °F /  6.0 °C 29.5in /  997.9hPa East 1.3mph /  2.1km/h 4.9mph /  7.9km/h 98% 0.02in /  0.5mm
13:56 41.7 °F /  5.4 °C 42.8 °F /  6.0 °C 29.5in /  997.9hPa Calm   4.9mph /  7.9km/h 98% 0.02in /  0.5mm
14:01 41.7 °F /  5.4 °C 42.8 °F /  6.0 °C 29.5in /  997.9hPa ENE 3.4mph /  5.5km/h 4.3mph /  6.9km/h 98% 0.02in /  0.5mm
14:06 41.5 °F /  5.3 °C 42.8 °F /  6.0 °C 29.5in /  997.9hPa Calm   4.3mph /  6.9km/h 98% 0.02in /  0.5mm
14:11 41.5 °F /  5.3 °C 42.8 °F /  6.0 °C 29.5in /  997.9hPa ENE 2mph /  3.2km/h 3.4mph /  5.5km/h 98% 0.02in /  0.5mm
14:16 41.5 °F /  5.3 °C 42.8 °F /  6.0 °C 29.5in /  997.9hPa East 4.3mph /  6.9km/h 4.5mph /  7.2km/h 98% 0.02in /  0.5mm
14:22 41.5 °F /  5.3 °C 42.8 °F /  6.0 °C 29.5in /  997.9hPa Calm   4.5mph /  7.2km/h 98% 0.02in /  0.5mm
14:27 41.5 °F /  5.3 °C 42.8 °F /  6.0 °C 29.5in /  997.9hPa Calm   5.6mph /  9.0km/h 98% 0.02in /  0.5mm
14:32 41.5 °F /  5.3 °C 42.8 °F /  6.0 °C 29.4in /  996.8hPa East 3.4mph /  5.5km/h 5.6mph /  9.0km/h 98% 0.02in /  0.5mm
14:37 41.7 °F /  5.4 °C 42.8 °F /  6.0 °C 29.4in /  996.8hPa East 2.7mph /  4.3km/h 4mph /  6.4km/h 98% 0.04in /  1.0mm
14:42 41.5 °F /  5.3 °C 42.8 °F /  6.0 °C 29.4in /  996.8hPa NE 5.4mph /  8.7km/h 5.6mph /  9.0km/h 98% 0.03in /  0.8mm
14:47 41.5 °F /  5.3 °C 42.8 °F /  6.0 °C 29.4in /  996.8hPa ENE 2.5mph /  4.0km/h 5.6mph /  9.0km/h 98% 0.03in /  0.8mm
14:52 41.7 °F /  5.4 °C 42.8 °F /  6.0 °C 29.4in /  996.8hPa NE 2.5mph /  4.0km/h 5.6mph /  9.0km/h 98% 0.03in /  0.8mm
14:57 41.7 °F /  5.4 °C 42.8 °F /  6.0 °C 29.4in /  996.8hPa ESE 1.1mph /  1.8km/h 5.6mph /  9.0km/h 98% 0.03in /  0.8mm
15:02 41.7 °F /  5.4 °C 42.8 °F /  6.0 °C 29.4in /  996.8hPa East 3.6mph /  5.8km/h 4.7mph /  7.6km/h 98% 0.03in /  0.8mm
15:07 41.9 °F /  5.5 °C 42.8 °F /  6.0 °C 29.4in /  996.8hPa Calm   4.7mph /  7.6km/h 98% 0.01in /  0.3mm
15:12 42.1 °F /  5.6 °C 42.8 °F /  6.0 °C 29.4in /  996.8hPa East 3.4mph /  5.5km/h 4.7mph /  7.6km/h 98% 0.01in /  0.3mm
15:17 42.3 °F /  5.7 °C 42.8 °F /  6.0 °C 29.4in /  996.8hPa Calm   4.7mph /  7.6km/h 98% 0.01in /  0.3mm
15:22 42.1 °F /  5.6 °C 42.8 °F /  6.0 °C 29.4in /  996.8hPa Calm   5.4mph /  8.7km/h 98% 0.01in /  0.3mm
15:27 42.1 °F /  5.6 °C 42.8 °F /  6.0 °C 29.4in /  996.8hPa ENE 1.3mph /  2.1km/h 5.4mph /  8.7km/h 98% 0.01in /  0.3mm
15:32 41.9 °F /  5.5 °C 42.8 °F /  6.0 °C 29.4in /  996.2hPa ENE 3.1mph /  5.0km/h 4.3mph /  6.9km/h 98% 0.01in /  0.3mm
15:37 41.9 °F /  5.5 °C 42.8 °F /  6.0 °C 29.4in /  996.2hPa Calm   4.3mph /  6.9km/h 98% 0in /  0.0mm
15:42 41.9 °F /  5.5 °C 42.8 °F /  6.0 °C 29.4in /  996.2hPa Calm   3.4mph /  5.5km/h 98% 0.01in /  0.3mm
15:47 41.9 °F /  5.5 °C 42.8 °F /  6.0 °C 29.4in /  996.8hPa Calm     98% 0.01in /  0.3mm
15:52 41.9 °F /  5.5 °C 42.8 °F /  6.0 °C 29.4in /  996.8hPa Calm   3.8mph /  6.1km/h 98% 0.01in /  0.3mm
15:58 41.7 °F /  5.4 °C 42.8 °F /  6.0 °C 29.4in /  996.8hPa Calm   3.8mph /  6.1km/h 98% 0.01in /  0.3mm
16:03 41.7 °F /  5.4 °C 42.8 °F /  6.0 °C 29.4in /  996.8hPa East 3.1mph /  5.0km/h 3.1mph /  5.0km/h 98% 0.01in /  0.3mm
16:08 41.7 °F /  5.4 °C 42.8 °F /  6.0 °C 29.4in /  996.8hPa Calm   3.1mph /  5.0km/h 98% 0.01in /  0.3mm
16:13 41.7 °F /  5.4 °C 42.8 °F /  6.0 °C 29.4in /  996.8hPa Calm   3.1mph /  5.0km/h 98% 0.01in /  0.3mm
16:18 41.7 °F /  5.4 °C 42.8 °F /  6.0 °C 29.4in /  996.8hPa Calm   3.4mph /  5.5km/h 98% 0.01in /  0.3mm
16:23 41.5 °F /  5.3 °C 42.8 °F /  6.0 °C 29.4in /  996.8hPa Calm   3.6mph /  5.8km/h 98% 0.01in /  0.3mm
16:28 41.5 °F /  5.3 °C 42.8 °F /  6.0 °C 29.4in /  996.8hPa Calm   3.6mph /  5.8km/h 98% 0.01in /  0.3mm
16:33 41.5 °F /  5.3 °C 42.8 °F /  6.0 °C 29.4in /  996.8hPa Calm   3.4mph /  5.5km/h 98% 0.01in /  0.3mm
16:38 41.5 °F /  5.3 °C 42.8 °F /  6.0 °C 29.4in /  996.8hPa Calm     98% 0.01in /  0.3mm
16:43 41.5 °F /  5.3 °C 42.8 °F /  6.0 °C 29.4in /  996.8hPa Calm     98% 0in /  0.0mm
16:48 41.5 °F /  5.3 °C 42.8 °F /  6.0 °C 29.5in /  997.9hPa Calm     98% 0in /  0.0mm
16:53 41.5 °F /  5.3 °C 42.8 °F /  6.0 °C 29.5in /  997.9hPa Calm     98% 0in /  0.0mm
16:58 41.5 °F /  5.3 °C 42.8 °F /  6.0 °C 29.5in /  997.9hPa Calm     98% 0in /  0.0mm
17:03 41.4 °F /  5.2 °C 41 °F /  5.0 °C 29.5in /  997.9hPa Calm     98% 0.01in /  0.3mm
17:08 41.4 °F /  5.2 °C 41 °F /  5.0 °C 29.5in /  997.9hPa Calm     98% 0.01in /  0.3mm
17:13 41.2 °F /  5.1 °C 41 °F /  5.0 °C 29.5in /  997.9hPa Calm   3.1mph /  5.0km/h 98% 0.01in /  0.3mm
17:18 41.2 °F /  5.1 °C 41 °F /  5.0 °C 29.5in /  997.9hPa Calm   3.1mph /  5.0km/h 98% 0.01in /  0.3mm
17:23 41 °F /  5.0 °C 41 °F /  5.0 °C 29.5in /  997.9hPa Calm     98% 0.01in /  0.3mm
17:28 41 °F /  5.0 °C 41 °F /  5.0 °C 29.5in /  997.9hPa Calm     98% 0.01in /  0.3mm
17:33 41 °F /  5.0 °C 41 °F /  5.0 °C 29.5in /  997.9hPa Calm     98% 0.01in /  0.3mm
17:38 40.8 °F /  4.9 °C 41 °F /  5.0 °C 29.5in /  997.9hPa Calm     98% 0.01in /  0.3mm
17:44 40.8 °F /  4.9 °C 41 °F /  5.0 °C 29.5in /  997.9hPa Calm     98% 0.01in /  0.3mm
17:49 40.8 °F /  4.9 °C 41 °F /  5.0 °C 29.5in /  997.9hPa Calm     98% 0.01in /  0.3mm
17:54 40.6 °F /  4.8 °C 41 °F /  5.0 °C 29.5in /  997.9hPa Calm     98% 0.02in /  0.5mm
17:59 40.6 °F /  4.8 °C 41 °F /  5.0 °C 29.5in /  997.9hPa Calm     98% 0.02in /  0.5mm
18:04 40.6 °F /  4.8 °C 41 °F /  5.0 °C 29.5in /  997.9hPa Calm     98% 0.01in /  0.3mm
18:09 40.6 °F /  4.8 °C 41 °F /  5.0 °C 29.5in /  997.9hPa Calm     98% 0.01in /  0.3mm
18:14 40.6 °F /  4.8 °C 41 °F /  5.0 °C 29.5in /  998.9hPa Calm     98% 0.01in /  0.3mm
18:19 40.6 °F /  4.8 °C 41 °F /  5.0 °C 29.5in /  998.9hPa Calm     98% 0.01in /  0.3mm
18:24 40.6 °F /  4.8 °C 41 °F /  5.0 °C 29.5in /  998.9hPa Calm     98% 0.01in /  0.3mm
18:29 40.6 °F /  4.8 °C 41 °F /  5.0 °C 29.5in /  998.9hPa Calm     98% 0.01in /  0.3mm
18:34 40.6 °F /  4.8 °C 41 °F /  5.0 °C 29.5in /  998.9hPa Calm     98% 0.01in /  0.3mm
18:39 40.6 °F /  4.8 °C 41 °F /  5.0 °C 29.5in /  998.9hPa Calm   2.5mph /  4.0km/h 98% 0.01in /  0.3mm
18:44 40.6 °F /  4.8 °C 41 °F /  5.0 °C 29.5in /  998.9hPa Calm   3.6mph /  5.8km/h 98% 0.01in /  0.3mm
18:49 40.5 °F /  4.7 °C 41 °F /  5.0 °C 29.5in /  998.9hPa Calm   4mph /  6.4km/h 98% 0.01in /  0.3mm
18:54 40.5 °F /  4.7 °C 41 °F /  5.0 °C 29.5in /  998.9hPa Calm   4mph /  6.4km/h 98% 0.01in /  0.3mm
18:59 40.5 °F /  4.7 °C 41 °F /  5.0 °C 29.5in /  998.9hPa Calm   3.4mph /  5.5km/h 98% 0.01in /  0.3mm
19:04 40.5 °F /  4.7 °C 41 °F /  5.0 °C 29.5in /  998.9hPa Calm   2mph /  3.2km/h 98% 0.01in /  0.3mm
19:09 40.5 °F /  4.7 °C 41 °F /  5.0 °C 29.5in /  998.9hPa NE 3.6mph /  5.8km/h 3.6mph /  5.8km/h 98% 0.01in /  0.3mm
19:14 40.5 °F /  4.7 °C 41 °F /  5.0 °C 29.5in /  998.9hPa NNE 0.9mph /  1.4km/h 3.6mph /  5.8km/h 98% 0.01in /  0.3mm
19:19 40.3 °F /  4.6 °C 41 °F /  5.0 °C 29.5in /  998.9hPa NE 2.5mph /  4.0km/h 4.9mph /  7.9km/h 98% 0.01in /  0.3mm
19:24 40.3 °F /  4.6 °C 41 °F /  5.0 °C 29.5in /  998.9hPa NE 5.6mph /  9.0km/h 5.6mph /  9.0km/h 98% 0.01in /  0.3mm
19:29 40.3 °F /  4.6 °C 41 °F /  5.0 °C 29.5in /  998.9hPa Calm   5.6mph /  9.0km/h 98% 0.01in /  0.3mm
19:34 40.3 °F /  4.6 °C 41 °F /  5.0 °C 29.5in /  998.9hPa NE 4.3mph /  6.9km/h 5.6mph /  9.0km/h 98% 0.01in /  0.3mm
19:39 40.3 °F /  4.6 °C 41 °F /  5.0 °C 29.5in /  998.9hPa NE 4.3mph /  6.9km/h 5.8mph /  9.3km/h 98% 0.01in /  0.3mm
19:44 40.1 °F /  4.5 °C 41 °F /  5.0 °C 29.5in /  999.9hPa North 6.3mph /  10.1km/h 6.3mph /  10.1km/h 98% 0.01in /  0.3mm
19:49 40.1 °F /  4.5 °C 41 °F /  5.0 °C 29.5in /  999.9hPa Calm   6.3mph /  10.1km/h 98% 0in /  0.0mm
19:54 40.1 °F /  4.5 °C 41 °F /  5.0 °C 29.5in /  999.9hPa NNE 0.9mph /  1.4km/h 6mph /  9.7km/h 98% 0in /  0.0mm
20:00 40.1 °F /  4.5 °C 41 °F /  5.0 °C 29.5in /  999.9hPa Calm   6mph /  9.7km/h 98% 0in /  0.0mm
20:05 39.9 °F /  4.4 °C 39.2 °F /  4.0 °C 29.5in /  999.9hPa Calm   4mph /  6.4km/h 98% 0in /  0.0mm
20:10 39.9 °F /  4.4 °C 39.2 °F /  4.0 °C 29.5in /  999.9hPa Calm   5.6mph /  9.0km/h 98% 0in /  0.0mm
20:15 39.9 °F /  4.4 °C 39.2 °F /  4.0 °C 29.6in /  1000.9hPa NNE 1.6mph /  2.6km/h 5.6mph /  9.0km/h 98% 0in /  0.0mm
20:20 39.9 °F /  4.4 °C 39.2 °F /  4.0 °C 29.6in /  1000.9hPa NE 1.3mph /  2.1km/h 6.3mph /  10.1km/h 98% 0in /  0.0mm
20:25 39.7 °F /  4.3 °C 39.2 °F /  4.0 °C 29.6in /  1000.9hPa NNE 4.9mph /  7.9km/h 7.4mph /  11.9km/h 98% 0in /  0.0mm
20:30 39.7 °F /  4.3 °C 39.2 °F /  4.0 °C 29.6in /  1000.9hPa NNE 4.9mph /  7.9km/h 7.4mph /  11.9km/h 98% 0in /  0.0mm
20:35 39.7 °F /  4.3 °C 39.2 °F /  4.0 °C 29.6in /  1000.9hPa NE 5.4mph /  8.7km/h 7.4mph /  11.9km/h 98% 0in /  0.0mm
20:40 39.7 °F /  4.3 °C 39.2 °F /  4.0 °C 29.6in /  1000.9hPa North 4.9mph /  7.9km/h 6.5mph /  10.5km/h 98% 0in /  0.0mm
20:45 39.6 °F /  4.2 °C 39.2 °F /  4.0 °C 29.6in /  1000.9hPa NE 3.1mph /  5.0km/h 7.2mph /  11.6km/h 98% 0in /  0.0mm
20:51 39.6 °F /  4.2 °C 39.2 °F /  4.0 °C 29.6in /  1000.9hPa NNE 3.1mph /  5.0km/h 7.2mph /  11.6km/h 98% 0in /  0.0mm
20:56 39.4 °F /  4.1 °C 39.2 °F /  4.0 °C 29.6in /  1000.9hPa NNE 5.6mph /  9.0km/h 6.5mph /  10.5km/h 98% 0in /  0.0mm
21:01 39.4 °F /  4.1 °C 39.2 °F /  4.0 °C 29.6in /  1000.9hPa Calm   6.3mph /  10.1km/h 98% 0in /  0.0mm
21:06 39.4 °F /  4.1 °C 39.2 °F /  4.0 °C 29.6in /  1000.9hPa NE 5.4mph /  8.7km/h 6.3mph /  10.1km/h 98% 0in /  0.0mm
21:11 39.2 °F /  4.0 °C 39.2 °F /  4.0 °C 29.6in /  1000.9hPa NE 1.6mph /  2.6km/h 6.3mph /  10.1km/h 98% 0in /  0.0mm
21:16 39.2 °F /  4.0 °C 39.2 °F /  4.0 °C 29.6in /  1001.9hPa NNW 5.8mph /  9.3km/h 6.5mph /  10.5km/h 98% 0in /  0.0mm
21:21 39.2 °F /  4.0 °C 39.2 °F /  4.0 °C 29.6in /  1001.9hPa ENE 3.4mph /  5.5km/h 6.5mph /  10.5km/h 98% 0in /  0.0mm
21:26 39 °F /  3.9 °C 39.2 °F /  4.0 °C 29.6in /  1001.9hPa NNE 2.7mph /  4.3km/h 6mph /  9.7km/h 98% 0in /  0.0mm
21:31 39 °F /  3.9 °C 39.2 °F /  4.0 °C 29.6in /  1002.9hPa NNE 2.7mph /  4.3km/h 5.8mph /  9.3km/h 98% 0in /  0.0mm
21:36 38.8 °F /  3.8 °C 39.2 °F /  4.0 °C 29.6in /  1002.9hPa NNE 2.9mph /  4.7km/h 5.8mph /  9.3km/h 98% 0in /  0.0mm
21:41 38.8 °F /  3.8 °C 39.2 °F /  4.0 °C 29.6in /  1002.9hPa North 1.3mph /  2.1km/h 5.6mph /  9.0km/h 98% 0in /  0.0mm
21:46 38.8 °F /  3.8 °C 39.2 °F /  4.0 °C 29.6in /  1002.9hPa North 4.3mph /  6.9km/h 5.6mph /  9.0km/h 98% 0in /  0.0mm
21:51 38.8 °F /  3.8 °C 39.2 °F /  4.0 °C 29.6in /  1002.9hPa NNE 5.4mph /  8.7km/h 5.8mph /  9.3km/h 98% 0in /  0.0mm
21:56 38.8 °F /  3.8 °C 39.2 °F /  4.0 °C 29.6in /  1002.9hPa North 3.8mph /  6.1km/h 5.8mph /  9.3km/h 98% 0in /  0.0mm
22:01 38.7 °F /  3.7 °C 39.2 °F /  4.0 °C 29.6in /  1002.9hPa North 4.9mph /  7.9km/h 6mph /  9.7km/h 98% 0in /  0.0mm
22:06 38.7 °F /  3.7 °C 39.2 °F /  4.0 °C 29.6in /  1002.9hPa NE 4mph /  6.4km/h 7.6mph /  12.2km/h 98% 0in /  0.0mm
22:11 38.8 °F /  3.8 °C 39.2 °F /  4.0 °C 29.6in /  1002.9hPa North 4.3mph /  6.9km/h 7.6mph /  12.2km/h 98% 0in /  0.0mm
22:17 38.7 °F /  3.7 °C 39.2 °F /  4.0 °C 29.6in /  1002.9hPa NNE 4.9mph /  7.9km/h 7.4mph /  11.9km/h 98% 0in /  0.0mm
22:22 38.5 °F /  3.6 °C 39.2 °F /  4.0 °C 29.6in /  1002.9hPa North 6mph /  9.7km/h 8.1mph /  13.0km/h 98% 0in /  0.0mm
22:27 38.3 °F /  3.5 °C 39.2 °F /  4.0 °C 29.6in /  1002.9hPa North 4mph /  6.4km/h 10.5mph /  16.9km/h 98% 0in /  0.0mm
22:32 38.3 °F /  3.5 °C 39.2 °F /  4.0 °C 29.6in /  1003.9hPa North 4mph /  6.4km/h 10.5mph /  16.9km/h 98% 0in /  0.0mm
22:37 38.1 °F /  3.4 °C 37.4 °F /  3.0 °C 29.6in /  1003.9hPa North 7.6mph /  12.2km/h 7.8mph /  12.6km/h 98% 0in /  0.0mm
22:42 38.1 °F /  3.4 °C 37.4 °F /  3.0 °C 29.6in /  1003.9hPa NE 6.5mph /  10.5km/h 8.5mph /  13.7km/h 98% 0in /  0.0mm
22:47 38.1 °F /  3.4 °C 37.4 °F /  3.0 °C 29.7in /  1005.0hPa North 8.5mph /  13.7km/h 8.5mph /  13.7km/h 98% 0in /  0.0mm
22:52 38.1 °F /  3.4 °C 37.4 °F /  3.0 °C 29.7in /  1005.0hPa NE 7.4mph /  11.9km/h 8.5mph /  13.7km/h 98% 0in /  0.0mm
22:57 38.1 °F /  3.4 °C 37.4 °F /  3.0 °C 29.7in /  1005.0hPa North 7.2mph /  11.6km/h 8.5mph /  13.7km/h 98% 0in /  0.0mm
23:02 37.9 °F /  3.3 °C 37.4 °F /  3.0 °C 29.6in /  1003.9hPa NNE 4.3mph /  6.9km/h 7.4mph /  11.9km/h 98% 0in /  0.0mm
23:07 37.9 °F /  3.3 °C 37.4 °F /  3.0 °C 29.6in /  1003.9hPa NNW 3.6mph /  5.8km/h 7.2mph /  11.6km/h 98% 0in /  0.0mm
23:12 37.9 °F /  3.3 °C 37.4 °F /  3.0 °C 29.6in /  1003.9hPa NNW 3.6mph /  5.8km/h 4.7mph /  7.6km/h 98% 0in /  0.0mm
23:17 37.9 °F /  3.3 °C 37.4 °F /  3.0 °C 29.7in /  1005.0hPa Calm   3.6mph /  5.8km/h 98% 0in /  0.0mm
23:22 37.9 °F /  3.3 °C 37.4 °F /  3.0 °C 29.7in /  1005.0hPa North 0.9mph /  1.4km/h 3.6mph /  5.8km/h 98% 0in /  0.0mm
23:28 37.9 °F /  3.3 °C 37.4 °F /  3.0 °C 29.7in /  1005.0hPa Calm   0.9mph /  1.4km/h 98% 0in /  0.0mm
23:33 37.9 °F /  3.3 °C 37.4 °F /  3.0 °C 29.7in /  1005.0hPa Calm   0.9mph /  1.4km/h 98% 0in /  0.0mm
23:38 37.9 °F /  3.3 °C 37.4 °F /  3.0 °C 29.7in /  1005.0hPa Calm     98% 0in /  0.0mm
23:43 37.9 °F /  3.3 °C 37.4 °F /  3.0 °C 29.7in /  1005.0hPa Calm     98% 0in /  0.0mm
23:48 37.9 °F /  3.3 °C 37.4 °F /  3.0 °C 29.7in /  1005.0hPa Calm     98% 0in /  0.0mm
23:53 37.8 °F /  3.2 °C 37.4 °F /  3.0 °C 29.7in /  1005.0hPa Calm     98% 0in /  0.0mm
23:58 37.9 °F /  3.3 °C 37.4 °F /  3.0 °C 29.7in /  1005.0hPa Calm     98% 0in /  0.0mm
Données Historique de Météo Turbie

Mise a jour : 26/05/2018 06:04:20
Généré par Cumulus 1.9.4 (1099)